EGNX/EMA METAR and TAF weather

Enter ICAO airport designator
Station Type Date Time Source
EGNX METAR 2022/11/26 09:50 UTC NOAA

EGNX 260950Z 17011KT 9999 FEW025 09/07 Q1021


Station Type Date Time Source
EGNX Decoded METAR 2022/11/26 09:50 UTC NOAA

East Midlands, United Kingdom (EGNX) 52-50N 001-20W
Nov 26, 2022 - 04:50 AM EST / 2022.11.26 0950 UTC
Wind: from the S (170 degrees) at 13 MPH (11 KT):0
Visibility: greater than 7 mile(s):0
Sky conditions: mostly clear
Temperature: 48 F (9 C)
Dew Point: 44 F (7 C)
Relative Humidity: 87%
Pressure (altimeter): 30.15 in. Hg (1021 hPa)
ob: EGNX 260950Z 17011KT 9999 FEW025 09/07 Q1021
cycle: 10

Station Type Date Time Source
EGNX TAF 2022/11/26 06:09 UTC NOAA

TAF EGNX 260500Z 2606/2706 18009KT 9999 FEW030
BECMG 2614/2617 17020G32KT PROB40
TEMPO 2616/2617 8000 -RA BKN014
TEMPO 2617/2624 6000 -RADZ BKN012 PROB30
TEMPO 2617/2621 3000 RADZ +RA BKN007 PROB30
TEMPO 2621/2701 3000 RADZ +RA BKN003
BECMG 2701/2704 20010KT

Example: see airport list